createdAt,value
2018-05-18T00:03:03.599Z,4.90
2018-05-18T00:08:04.918Z,5.63
2018-05-18T00:13:06.234Z,6.90
2018-05-18T00:18:08.296Z,5.07
2018-05-18T00:23:09.606Z,5.17
2018-05-18T00:28:10.915Z,5.10
2018-05-18T00:33:12.958Z,5.23
2018-05-18T00:38:14.260Z,5.60
2018-05-18T00:43:15.575Z,6.33
2018-05-18T00:48:16.907Z,5.70
2018-05-18T00:53:18.226Z,5.40
2018-05-18T00:58:26.533Z,5.17
2018-05-18T01:03:28.576Z,6.40
2018-05-18T01:08:29.886Z,4.60
2018-05-18T01:13:31.196Z,5.20
2018-05-18T01:18:32.570Z,5.53
2018-05-18T01:23:33.880Z,5.00
2018-05-18T01:28:35.173Z,3.70
2018-05-18T01:33:36.490Z,3.33
2018-05-18T01:38:38.609Z,4.17
2018-05-18T01:43:39.880Z,3.23
2018-05-18T01:48:41.934Z,3.57
2018-05-18T01:53:43.247Z,3.83
2018-05-18T01:58:44.541Z,3.47
2018-05-18T02:03:46.003Z,3.47
2018-05-18T02:08:47.316Z,3.30
2018-05-18T02:13:48.623Z,3.40
2018-05-18T02:18:50.676Z,3.90
2018-05-18T02:23:52.006Z,3.23
2018-05-18T02:28:53.291Z,4.00
2018-05-18T02:33:54.600Z,4.90
2018-05-18T02:38:56.670Z,3.77
2018-05-18T02:43:57.994Z,2.97
2018-05-18T02:49:00.265Z,3.40
2018-05-18T02:54:01.588Z,3.13
2018-05-18T02:59:02.927Z,3.40
2018-05-18T03:04:04.249Z,3.17
2018-05-18T03:09:05.621Z,3.27
2018-05-18T03:14:06.935Z,3.37
2018-05-18T03:19:08.253Z,3.60
2018-05-18T03:24:10.302Z,3.20
2018-05-18T03:29:11.630Z,3.07
2018-05-18T03:34:12.941Z,3.70
2018-05-18T03:39:14.346Z,3.27
2018-05-18T03:44:15.662Z,3.83
2018-05-18T03:49:16.971Z,3.43
2018-05-18T03:54:18.298Z,3.43
2018-05-18T03:59:21.050Z,2.70
2018-05-18T04:04:41.260Z,3.60
2018-05-18T04:09:43.479Z,3.40
2018-05-18T04:14:45.435Z,2.70
2018-05-18T04:19:47.649Z,3.23
2018-05-18T04:24:48.941Z,2.83
2018-05-18T04:29:50.252Z,3.87
2018-05-18T04:34:52.307Z,3.80
2018-05-18T04:39:53.614Z,3.50
2018-05-18T04:44:54.916Z,3.50
2018-05-18T04:49:56.234Z,2.90
2018-05-18T04:54:57.523Z,3.77
2018-05-18T04:59:58.826Z,2.90
2018-05-18T05:05:00.162Z,4.27
2018-05-18T05:10:01.494Z,3.97
2018-05-18T05:15:02.847Z,3.60
2018-05-18T05:20:04.170Z,4.03
2018-05-18T05:25:05.499Z,2.87
2018-05-18T05:30:06.825Z,3.20
2018-05-18T05:35:08.129Z,3.20
2018-05-18T05:40:10.186Z,2.70
2018-05-18T05:45:11.502Z,3.13
2018-05-18T05:50:12.840Z,2.70
2018-05-18T05:55:14.182Z,4.27
2018-05-18T06:00:15.510Z,3.50
2018-05-18T06:05:16.960Z,4.17
2018-05-18T06:10:18.213Z,3.23
2018-05-18T06:15:19.537Z,3.53
2018-05-18T06:20:20.875Z,2.83
2018-05-18T06:25:22.194Z,3.50
2018-05-18T06:30:23.510Z,3.30
2018-05-18T06:35:24.846Z,3.53
2018-05-18T06:40:26.186Z,3.17
2018-05-18T06:45:27.490Z,3.43
2018-05-18T06:50:29.569Z,3.30
2018-05-18T06:55:30.900Z,3.10
2018-05-18T07:00:32.198Z,3.83
2018-05-18T07:05:33.497Z,3.40
2018-05-18T07:10:34.888Z,3.83
2018-05-18T07:15:36.134Z,3.50
2018-05-18T07:20:38.203Z,3.30
2018-05-18T07:25:39.523Z,3.83
2018-05-18T07:30:40.849Z,3.70
2018-05-18T07:35:42.170Z,3.60
2018-05-18T07:40:43.483Z,3.27
2018-05-18T07:45:44.821Z,3.60
2018-05-18T07:50:46.142Z,4.63
2018-05-18T07:55:47.458Z,4.03
2018-05-18T08:00:48.769Z,3.50
2018-05-18T08:05:50.814Z,3.40
2018-05-18T08:10:52.122Z,4.10
2018-05-18T08:15:53.434Z,3.30
2018-05-18T08:20:54.734Z,4.30
2018-05-18T08:25:56.050Z,3.47
2018-05-18T08:31:06.247Z,4.47
2018-05-18T08:36:07.576Z,4.03
2018-05-18T08:41:09.702Z,3.93
2018-05-18T08:46:11.007Z,3.80
2018-05-18T08:51:13.053Z,3.40
2018-05-18T08:56:14.362Z,5.30
2018-05-18T09:01:15.672Z,4.00
2018-05-18T09:06:16.993Z,4.37
2018-05-18T09:11:18.313Z,4.37
2018-05-18T09:16:19.609Z,4.30
2018-05-18T09:21:20.930Z,3.57
2018-05-18T09:26:22.307Z,4.37
2018-05-18T09:31:23.590Z,4.20
2018-05-18T09:36:24.906Z,4.10
2018-05-18T09:41:26.218Z,4.83
2018-05-18T09:46:27.618Z,4.70
2018-05-18T09:51:28.971Z,5.00
2018-05-18T09:56:30.391Z,3.90
2018-05-18T10:01:31.703Z,4.83
2018-05-18T10:06:33.050Z,4.70
2018-05-18T10:11:35.126Z,3.77
2018-05-18T10:16:36.442Z,5.13
2018-05-18T10:21:38.491Z,4.73
2018-05-18T10:26:39.835Z,4.63
2018-05-18T10:31:41.134Z,4.53
2018-05-18T10:36:43.183Z,4.97
2018-05-18T10:41:44.514Z,4.00
2018-05-18T10:46:45.846Z,4.87
2018-05-18T10:51:47.175Z,4.50
2018-05-18T10:56:48.523Z,4.60
2018-05-18T11:01:49.836Z,4.33
2018-05-18T11:06:51.224Z,3.70
2018-05-18T11:11:53.239Z,3.90
2018-05-18T11:16:54.567Z,4.80
2018-05-18T11:21:55.882Z,8.97
2018-05-18T11:26:57.175Z,4.50
2018-05-18T11:31:58.499Z,5.30
2018-05-18T11:36:59.810Z,5.07
2018-05-18T11:42:01.156Z,4.80
2018-05-18T11:47:02.529Z,5.40
2018-05-18T11:52:03.932Z,4.87
2018-05-18T11:57:05.251Z,4.60
2018-05-18T12:02:06.602Z,4.73
2018-05-18T12:07:07.910Z,5.70
2018-05-18T12:12:09.239Z,5.63
2018-05-18T12:17:10.563Z,5.03
2018-05-18T12:22:11.883Z,5.80
2018-05-18T12:27:13.230Z,4.80
2018-05-18T12:32:15.274Z,6.90
2018-05-18T12:37:23.533Z,4.47
2018-05-18T12:42:24.875Z,5.63
2018-05-18T12:47:26.936Z,5.90
2018-05-18T12:52:28.247Z,4.50
2018-05-18T12:57:29.566Z,5.37
2018-05-18T13:02:31.746Z,4.80
2018-05-18T13:07:33.025Z,4.93
2018-05-18T13:12:34.362Z,4.47
2018-05-18T13:17:35.683Z,5.10
2018-05-18T13:22:37.003Z,7.57
2018-05-18T13:27:38.411Z,5.13
2018-05-18T13:32:39.734Z,6.20
2018-05-18T13:37:41.034Z,5.77
2018-05-18T13:42:42.350Z,5.23
2018-05-18T13:47:43.694Z,4.50
2018-05-18T13:52:45.022Z,5.20
2018-05-18T13:57:46.359Z,5.50
2018-05-18T14:02:48.492Z,5.10
2018-05-18T14:07:49.742Z,4.40
2018-05-18T14:12:52.202Z,4.43
2018-05-18T14:17:53.548Z,4.50
2018-05-18T14:22:55.600Z,4.63
2018-05-18T14:27:56.914Z,5.03
2018-05-18T14:32:58.230Z,4.77
2018-05-18T14:37:59.669Z,5.00
2018-05-18T14:43:00.888Z,5.40
2018-05-18T14:48:02.242Z,5.60
2018-05-18T14:53:03.579Z,5.30
2018-05-18T14:58:04.913Z,4.77
2018-05-18T15:03:06.229Z,4.60
2018-05-18T15:08:07.552Z,5.00
2018-05-18T15:13:08.890Z,4.27
2018-05-18T15:18:10.211Z,4.37
2018-05-18T15:23:11.564Z,5.33
2018-05-18T15:28:13.089Z,4.80
2018-05-18T15:33:14.399Z,5.53
2018-05-18T15:38:15.689Z,5.00
2018-05-18T15:43:17.010Z,5.60
2018-05-18T15:48:18.322Z,4.57
2018-05-18T15:53:19.659Z,3.93
2018-05-18T15:58:21.150Z,4.90
2018-05-18T16:03:22.537Z,4.23
2018-05-18T16:08:23.859Z,4.80
2018-05-18T16:13:25.154Z,5.37
2018-05-18T16:18:26.480Z,4.97
2018-05-18T16:23:27.816Z,4.40
2018-05-18T16:28:29.897Z,4.13
2018-05-18T16:33:31.236Z,4.67
2018-05-18T16:38:32.558Z,5.10
2018-05-18T16:43:33.882Z,4.13
2018-05-18T16:48:36.010Z,5.70
2018-05-18T16:53:37.330Z,4.53
2018-05-18T16:58:38.642Z,4.30
2018-05-18T17:03:39.960Z,4.10
2018-05-18T17:08:42.010Z,4.33
2018-05-18T17:13:43.352Z,4.63
2018-05-18T17:18:44.646Z,4.43
2018-05-18T17:23:46.706Z,4.47
2018-05-18T17:28:48.030Z,5.13
2018-05-18T17:33:49.318Z,4.17
2018-05-18T17:38:51.167Z,4.50
2018-05-18T17:43:53.194Z,4.60
2018-05-18T17:48:55.555Z,4.60
2018-05-18T17:53:57.237Z,5.23
2018-05-18T17:58:58.582Z,4.50
2018-05-18T18:03:59.919Z,4.53
2018-05-18T18:09:01.293Z,5.30
2018-05-18T18:14:02.715Z,4.10
2018-05-18T18:19:04.031Z,4.63
2018-05-18T18:24:05.498Z,4.80
2018-05-18T18:29:07.598Z,3.97
2018-05-18T18:34:09.726Z,4.10
2018-05-18T18:39:11.900Z,4.20
2018-05-18T18:44:13.279Z,4.80
2018-05-18T18:49:14.723Z,4.57
2018-05-18T18:54:16.731Z,5.53
2018-05-18T18:59:18.082Z,5.43
2018-05-18T19:04:20.188Z,4.90
2018-05-18T19:09:21.522Z,4.80
2018-05-18T19:14:22.882Z,4.97
2018-05-18T19:19:26.041Z,4.40
2018-05-18T19:24:27.399Z,5.07
2018-05-18T19:29:29.461Z,6.10
2018-05-18T19:34:30.790Z,6.00
2018-05-18T19:39:32.129Z,5.50
2018-05-18T19:44:33.457Z,5.13
2018-05-18T19:49:34.761Z,6.73
2018-05-18T19:54:37.940Z,7.30
2018-05-18T19:59:40.140Z,6.40
2018-05-18T20:04:42.272Z,8.50
2018-05-18T20:09:43.598Z,6.50
2018-05-18T20:14:46.061Z,6.83
2018-05-18T20:19:47.485Z,7.70
2018-05-18T20:24:48.737Z,6.83
2018-05-18T20:29:50.059Z,8.40
2018-05-18T20:34:51.385Z,7.80
2018-05-18T20:39:52.685Z,7.53
2018-05-18T20:44:53.995Z,7.10
2018-05-18T20:49:55.314Z,7.23
2018-05-18T20:54:56.698Z,6.37
2018-05-18T20:59:58.087Z,7.03
2018-05-18T21:04:59.431Z,7.00
2018-05-18T21:10:00.740Z,7.40
2018-05-18T21:15:02.082Z,6.83
2018-05-18T21:20:03.426Z,7.17
2018-05-18T21:25:04.764Z,5.57
2018-05-18T21:30:06.102Z,6.27
2018-05-18T21:35:07.414Z,6.40
2018-05-18T21:40:08.721Z,6.67
2018-05-18T21:45:10.034Z,6.60
2018-05-18T21:50:11.397Z,6.93
2018-05-18T21:55:12.718Z,7.23
2018-05-18T22:00:14.782Z,8.30
2018-05-18T22:05:16.110Z,7.90
2018-05-18T22:10:17.437Z,7.57
2018-05-18T22:15:18.736Z,9.43
2018-05-18T22:20:20.067Z,7.83
2018-05-18T22:25:22.126Z,8.13
2018-05-18T22:30:23.444Z,7.80
2018-05-18T22:35:24.771Z,7.23
2018-05-18T22:40:26.058Z,8.03
2018-05-18T22:45:27.375Z,8.70
2018-05-18T22:50:28.709Z,7.97
2018-05-18T22:55:30.046Z,7.43
2018-05-18T23:00:31.404Z,6.87
2018-05-18T23:05:33.471Z,7.20
2018-05-18T23:10:34.798Z,7.43
2018-05-18T23:15:36.851Z,8.07
2018-05-18T23:20:38.166Z,8.67
2018-05-18T23:25:39.494Z,8.10
2018-05-18T23:30:40.833Z,8.03
2018-05-18T23:35:42.145Z,7.77
2018-05-18T23:40:43.470Z,8.80
2018-05-18T23:45:44.776Z,7.70
2018-05-18T23:50:46.085Z,7.17
2018-05-18T23:55:47.390Z,10.10
